Time;durP1;ratioP1;P1;durP2;ratioP2;P2;SDS_P1;SDS_P2;PMS_P1;PMS_P2;Temp;Humidity;BMP_temperature;BMP_pressure;BME280_temperature;BME280_humidity;BME280_pressure;Samples;Min_cycle;Max_cycle;Signal;HPM_P1;HPM_P2
2022/10/15 00:00:31;;;;;;;82.13;52.08;;;;;;;28.48;54.92;100575.38;5060358;28;69665;-39
2022/10/15 00:03:01;;;;;;;78.22;49.67;;;;;;;28.50;55.76;100576.00;5055735;28;66622;-39
2022/10/15 00:05:32;;;;;;;32.95;25.30;;;;;;;28.47;57.40;100578.28;5061298;28;70160;-40
2022/10/15 00:08:02;;;;;;;23.48;20.45;;;;;;;28.47;57.04;100589.06;5058421;28;66911;-40
2022/10/15 00:10:34;;;;;;;41.25;25.27;;;;;;;28.54;57.62;100589.91;5057880;28;70008;-40
2022/10/15 00:13:05;;;;;;;77.47;46.28;;;;;;;28.51;57.61;100588.44;5061862;28;64902;-40
2022/10/15 00:15:36;;;;;;;100.43;54.45;;;;;;;28.60;57.91;100604.41;5059616;28;69605;-39
2022/10/15 00:18:07;;;;;;;69.18;37.60;;;;;;;28.58;58.40;100598.41;5056511;28;66731;-39
2022/10/15 00:20:41;;;;;;;40.88;24.55;;;;;;;28.43;59.71;100588.69;5059674;28;69796;-41
2022/10/15 00:23:11;;;;;;;28.63;19.88;;;;;;;28.60;59.98;100604.41;5068828;28;66092;-41
2022/10/15 00:25:42;;;;;;;25.67;17.90;;;;;;;28.61;59.59;100604.22;5047214;28;70508;-39
2022/10/15 00:28:12;;;;;;;25.40;17.95;;;;;;;28.51;59.91;100591.16;5057707;28;66164;-39
2022/10/15 00:30:43;;;;;;;16.33;14.73;;;;;;;28.66;59.81;100608.97;5059119;28;69703;-41
2022/10/15 00:33:15;;;;;;;25.20;17.23;;;;;;;28.55;59.92;100593.44;5059227;28;66242;-38
2022/10/15 00:36:00;;;;;;;34.65;18.70;;;;;;;28.16;61.25;100533.91;5046711;28;69307;-41
2022/10/15 00:38:32;;;;;;;24.92;17.15;;;;;;;28.73;60.10;100609.78;5055239;28;66057;-40
2022/10/15 00:41:05;;;;;;;25.48;17.25;;;;;;;28.30;59.53;100545.50;5057913;28;69395;-43
2022/10/15 00:43:38;;;;;;;22.48;16.70;;;;;;;28.78;60.31;100630.72;5051054;28;66662;-40
2022/10/15 00:46:34;;;;;;;18.10;16.17;;;;;;;28.68;60.48;100633.88;5059090;28;69095;-41
2022/10/15 00:49:25;;;;;;;18.65;16.48;;;;;;;28.32;60.82;100570.41;5064661;28;66216;-40
2022/10/15 00:51:58;;;;;;;28.85;18.95;;;;;;;28.85;60.73;100631.53;5068416;28;69990;-41
2022/10/15 00:54:34;;;;;;;18.15;16.17;;;;;;;28.52;60.42;100576.59;5065433;28;65841;-40
2022/10/15 00:57:06;;;;;;;16.95;14.57;;;;;;;28.42;60.59;100562.75;5052035;28;70837;-39
2022/10/15 00:59:40;;;;;;;;;;;;;;;28.46;64.24;100626.03;5061326;28;66264;-41
2022/10/15 01:02:12;;;;;;;18.75;13.10;;;;;;;28.44;61.63;100568.75;5065047;28;70808;-38
2022/10/15 01:04:43;;;;;;;;;;;;;;;28.47;63.14;100638.50;5060795;28;66581;-39
2022/10/15 01:07:13;;;;;;;17.30;13.27;;;;;;;28.83;61.04;100631.75;5062010;28;69757;-40
2022/10/15 01:09:49;;;;;;;13.55;12.20;;;;;;;28.88;62.18;100641.91;5053307;28;66187;-41
2022/10/15 01:12:31;;;;;;;15.93;12.15;;;;;;;28.71;60.82;100615.38;5060790;28;69572;-40
2022/10/15 01:15:37;;;;;;;15.63;13.75;;;;;;;28.77;61.33;100643.41;5065471;27;65751;-37
2022/10/15 01:18:29;;;;;;;15.48;12.77;;;;;;;28.65;61.08;100613.53;5061938;28;69520;-39
2022/10/15 01:21:06;;;;;;;12.73;11.45;;;;;;;29.00;60.88;100671.78;5027966;28;66801;-38
2022/10/15 01:24:16;;;;;;;16.70;11.68;;;;;;;28.90;61.33;100678.47;5058948;28;69653;-40
2022/10/15 01:27:26;;;;;;;19.70;11.50;;;;;;;28.89;62.40;100693.03;5012301;28;66176;-39
2022/10/15 01:30:15;;;;;;;12.25;11.05;;;;;;;29.01;60.70;100678.88;5052415;28;70185;-39
2022/10/15 01:32:53;;;;;;;13.85;12.15;;;;;;;28.58;61.69;100606.50;5057078;28;66017;-38
2022/10/15 01:35:41;;;;;;;20.13;11.90;;;;;;;29.00;61.22;100678.00;5045832;28;69943;-40
2022/10/15 01:38:21;;;;;;;16.80;11.52;;;;;;;29.11;61.65;100682.81;5053028;28;66807;-39
2022/10/15 01:40:57;;;;;;;13.82;11.23;;;;;;;29.16;61.54;100682.16;5051671;28;69949;-39
2022/10/15 01:43:51;;;;;;;12.07;10.82;;;;;;;29.13;61.37;100686.09;5052821;28;65776;-39
2022/10/15 01:47:07;;;;;;;12.57;11.30;;;;;;;28.72;61.33;100608.97;5052526;28;69459;-39
2022/10/15 01:49:43;;;;;;;16.80;11.25;;;;;;;28.80;61.20;100607.88;5050656;28;66163;-39
2022/10/15 01:52:24;;;;;;;11.88;10.77;;;;;;;28.84;61.52;100603.72;5054928;28;70235;-39
2022/10/15 01:54:55;;;;;;;;;;;;;;;28.93;62.74;100694.25;5046595;28;66903;-39
2022/10/15 01:57:29;;;;;;;12.15;10.07;;;;;;;28.89;61.68;100614.72;5052671;28;70932;-40
2022/10/15 02:00:03;;;;;;;12.60;10.98;;;;;;;29.29;62.17;100657.78;5045931;28;66488;-39
2022/10/15 02:02:40;;;;;;;14.98;11.13;;;;;;;29.47;62.13;100691.38;5053716;28;70465;-39
2022/10/15 02:05:26;;;;;;;12.27;11.13;;;;;;;28.90;61.53;100610.97;5055584;28;66212;-38
2022/10/15 02:08:18;;;;;;;11.88;10.85;;;;;;;29.54;61.52;100708.41;5050258;28;70736;-38
2022/10/15 02:10:58;;;;;;;12.73;11.45;;;;;;;28.71;61.77;100569.50;5036494;28;66866;-39
2022/10/15 02:13:51;;;;;;;12.25;11.10;;;;;;;29.51;62.04;100708.84;5055944;28;69108;-38
2022/10/15 02:16:28;;;;;;;12.50;11.15;;;;;;;29.65;62.00;100712.34;5049828;28;66584;-39
2022/10/15 02:19:01;;;;;;;14.00;11.07;;;;;;;29.69;62.18;100721.66;5056470;28;70427;-37
2022/10/15 02:22:05;;;;;;;12.20;11.30;;;;;;;29.58;62.16;100715.03;5054987;28;65401;-38
2022/10/15 02:24:41;;;;;;;11.70;10.63;;;;;;;29.73;62.32;100710.19;5040233;28;70567;-39
2022/10/15 02:27:13;;;;;;;11.73;10.52;;;;;;;29.76;61.85;100707.06;5054377;28;66932;-39
2022/10/15 02:29:46;;;;;;;13.63;11.27;;;;;;;29.80;62.11;100713.69;5057277;28;69326;-39
2022/10/15 02:32:20;;;;;;;12.45;11.07;;;;;;;29.52;62.26;100661.84;5044617;28;66355;-40
2022/10/15 02:34:52;;;;;;;12.20;11.10;;;;;;;29.85;62.05;100710.34;5056354;28;70644;-39
2022/10/15 02:37:27;;;;;;;12.82;11.68;;;;;;;29.76;61.90;100696.25;5056312;28;65303;-39
2022/10/15 02:39:57;;;;;;;12.30;11.25;;;;;;;29.92;61.83;100721.09;5052454;28;69629;-39
2022/10/15 02:42:31;;;;;;;12.25;11.15;;;;;;;29.94;61.70;100714.44;5055745;28;66350;-39
2022/10/15 02:45:02;;;;;;;11.60;10.70;;;;;;;29.96;61.57;100706.94;5056346;28;70153;-39
2022/10/15 02:47:32;;;;;;;12.13;11.15;;;;;;;29.99;61.71;100728.13;5054496;28;65569;-39
2022/10/15 02:50:04;;;;;;;13.32;11.07;;;;;;;30.03;61.56;100709.56;5046282;28;70473;-39
2022/10/15 02:52:34;;;;;;;12.63;11.57;;;;;;;30.04;62.17;100719.38;5058651;28;66937;-39
2022/10/15 02:55:05;;;;;;;12.30;11.40;;;;;;;29.95;62.09;100704.44;5058325;28;70138;-39
2022/10/15 02:57:36;;;;;;;11.43;10.60;;;;;;;30.10;61.68;100723.91;5041725;28;64971;-39
2022/10/15 03:00:08;;;;;;;11.53;10.63;;;;;;;30.12;61.56;100721.00;5056616;28;69996;-39
2022/10/15 03:02:40;;;;;;;11.65;10.75;;;;;;;29.97;61.38;100686.94;5058807;28;66580;-39
2022/10/15 03:05:12;;;;;;;12.27;10.32;;;;;;;30.05;61.57;100700.19;5056948;28;69859;-34
2022/10/15 03:07:43;;;;;;;11.20;10.53;;;;;;;30.18;61.08;100717.41;5050410;28;65901;-34
2022/10/15 03:10:14;;;;;;;11.00;10.20;;;;;;;30.21;61.11;100709.66;5059294;28;69245;-36
2022/10/15 03:12:45;;;;;;;11.40;10.20;;;;;;;30.19;60.96;100700.94;5058704;28;66447;-34
2022/10/15 03:15:15;;;;;;;12.45;10.45;;;;;;;30.27;61.31;100698.00;5056110;28;69331;-34
2022/10/15 03:17:47;;;;;;;11.18;10.10;;;;;;;30.27;60.71;100698.00;5062963;28;66177;-36
2022/10/15 03:20:18;;;;;;;11.15;10.15;;;;;;;30.30;61.17;100690.47;5057687;28;70249;-35
2022/10/15 03:22:50;;;;;;;10.75;9.95;;;;;;;30.36;61.01;100689.59;5057759;28;67150;-34
2022/10/15 03:25:20;;;;;;;10.25;9.38;;;;;;;30.36;60.80;100678.78;5057452;28;71356;-34
2022/10/15 03:28:00;;;;;;;10.45;9.52;;;;;;;30.40;60.66;100680.00;5055679;28;66280;-34
2022/10/15 03:30:38;;;;;;;9.82;9.07;;;;;;;30.43;60.64;100674.13;5059057;28;70472;-35
2022/10/15 03:33:11;;;;;;;10.52;9.45;;;;;;;30.46;60.70;100676.41;5057155;28;66251;-34
2022/10/15 03:35:41;;;;;;;10.43;9.57;;;;;;;30.33;60.08;100652.97;5059353;28;69895;-34
2022/10/15 03:38:12;;;;;;;10.30;9.60;;;;;;;30.50;60.13;100675.72;5055847;28;65752;-35
2022/10/15 03:40:45;;;;;;;10.82;10.13;;;;;;;30.22;60.05;100613.94;5058030;28;69771;-33
2022/10/15 03:43:25;;;;;;;10.63;9.88;;;;;;;30.54;60.08;100665.28;5056983;28;65320;-38
2022/10/15 03:46:02;;;;;;;10.13;9.32;;;;;;;30.59;59.92;100657.34;5054786;28;70604;-34
2022/10/15 03:48:37;;;;;;;11.50;10.00;;;;;;;30.38;60.73;100649.63;5056035;28;66771;-34
2022/10/15 03:51:07;;;;;;;14.05;11.63;;;;;;;30.25;61.01;100643.25;5053563;28;70552;-33
2022/10/15 03:53:39;;;;;;;12.98;11.10;;;;;;;30.16;61.27;100631.03;5051381;28;65295;-34
2022/10/15 03:56:09;;;;;;;11.23;10.32;;;;;;;30.08;61.76;100623.19;5051620;28;69407;-34
2022/10/15 03:58:41;;;;;;;11.75;10.77;;;;;;;30.03;61.66;100609.50;5051472;28;66362;-34
2022/10/15 04:01:17;;;;;;;11.88;10.98;;;;;;;29.95;62.09;100605.22;5049858;28;69580;-34
2022/10/15 04:03:52;;;;;;;12.02;11.05;;;;;;;29.78;62.46;100569.78;5052757;28;65356;-34
2022/10/15 04:06:26;;;;;;;12.05;11.02;;;;;;;30.08;62.58;100619.66;5048903;28;70130;-34
2022/10/15 04:08:57;;;;;;;12.07;11.15;;;;;;;30.10;62.40;100607.59;5052728;28;66413;-34
2022/10/15 04:11:28;;;;;;;14.75;11.95;;;;;;;29.76;62.33;100550.25;5033410;28;69353;-35
2022/10/15 04:14:05;;;;;;;12.25;11.07;;;;;;;30.07;62.77;100594.50;5046536;28;66000;-34
2022/10/15 04:16:36;;;;;;;12.77;11.10;;;;;;;30.07;62.05;100594.50;5052339;28;68385;-35
2022/10/15 04:19:14;;;;;;;13.13;11.75;;;;;;;30.06;62.44;100579.31;5035437;28;65261;-34
2022/10/15 04:21:54;;;;;;;14.90;11.73;;;;;;;30.11;62.09;100582.19;5055050;28;69491;-33
2022/10/15 04:24:43;;;;;;;11.95;10.93;;;;;;;30.25;61.13;100570.19;5053833;28;66741;-35
2022/10/15 04:27:24;;;;;;;11.50;10.52;;;;;;;30.38;61.17;100569.25;5057646;28;70513;-35
2022/10/15 04:30:01;;;;;;;12.02;11.10;;;;;;;30.08;60.62;100509.59;5036136;28;66230;-34
2022/10/15 04:32:32;;;;;;;12.68;11.35;;;;;;;30.54;60.64;100567.84;5058263;28;70116;-34
2022/10/15 04:35:04;;;;;;;11.63;10.90;;;;;;;30.60;60.28;100566.94;5058820;28;66380;-34
2022/10/15 04:37:58;;;;;;;12.07;11.00;;;;;;;30.55;60.65;100541.59;5054841;28;68829;-35
2022/10/15 04:40:56;;;;;;;12.93;11.88;;;;;;;30.64;60.50;100535.63;5056928;28;65174;-34
2022/10/15 04:43:32;;;;;;;12.60;11.35;;;;;;;30.69;59.73;100526.84;5057912;28;70280;-35
2022/10/15 04:46:08;;;;;;;14.05;11.23;;;;;;;30.82;59.66;100542.13;5053535;28;65845;-34
2022/10/15 04:48:39;;;;;;;11.13;10.32;;;;;;;30.86;59.98;100537.91;5052511;28;69424;-34
2022/10/15 04:51:17;;;;;;;12.27;11.23;;;;;;;30.65;60.11;100542.72;5053075;28;66722;-34
2022/10/15 04:54:09;;;;;;;13.45;11.45;;;;;;;30.43;60.59;100511.75;5036655;28;69119;-35
2022/10/15 04:56:55;;;;;;;13.52;12.18;;;;;;;30.53;60.97;100528.28;5036714;28;65955;-37
2022/10/15 04:59:26;;;;;;;15.25;11.70;;;;;;;30.49;61.24;100516.25;5051186;28;70195;-34
2022/10/15 05:02:17;;;;;;;12.68;11.38;;;;;;;30.53;60.96;100525.56;5048468;28;65716;-34
2022/10/15 05:04:54;;;;;;;17.23;12.27;;;;;;;30.47;61.52;100523.78;5066346;27;69734;-35
2022/10/15 05:07:25;;;;;;;14.68;11.63;;;;;;;30.46;61.48;100522.13;5044018;28;67182;-35
2022/10/15 05:09:56;;;;;;;11.95;10.73;;;;;;;30.45;61.87;100509.63;5051340;28;70357;-35
2022/10/15 05:12:27;;;;;;;12.38;11.13;;;;;;;30.44;62.07;100524.22;5052692;28;67847;-35
2022/10/15 05:15:01;;;;;;;15.18;11.98;;;;;;;30.50;61.53;100507.06;5046600;28;70819;-33
2022/10/15 05:17:32;;;;;;;11.50;10.27;;;;;;;30.46;62.15;100511.31;5051194;28;65437;-34
2022/10/15 05:20:03;;;;;;;11.95;10.73;;;;;;;30.48;62.28;100511.91;5047675;28;70368;-35
2022/10/15 05:22:47;;;;;;;11.77;10.35;;;;;;;30.50;62.64;100510.59;5053117;28;66743;-34
2022/10/15 05:25:17;;;;;;;12.10;10.77;;;;;;;30.52;62.51;100510.38;5049342;28;69989;-36
2022/10/15 05:27:50;;;;;;;10.52;9.73;;;;;;;30.49;62.47;100500.03;5058070;28;66199;-35
2022/10/15 05:30:20;;;;;;;11.43;10.43;;;;;;;30.49;62.41;100505.44;5060387;28;70524;-35
2022/10/15 05:32:54;;;;;;;11.55;10.48;;;;;;;30.56;62.96;100506.16;5057901;28;65676;-34
2022/10/15 05:35:25;;;;;;;10.50;9.65;;;;;;;30.44;63.39;100480.91;5047826;28;70438;-34
2022/10/15 05:38:05;;;;;;;11.98;9.98;;;;;;;30.47;63.70;100480.47;5047199;28;65729;-35
2022/10/15 05:40:36;;;;;;;10.40;9.45;;;;;;;30.56;63.94;100491.81;5048731;28;69281;-34
2022/10/15 05:43:17;;;;;;;12.25;9.77;;;;;;;30.41;62.50;100475.97;5049543;28;65395;-34
2022/10/15 05:45:52;;;;;;;18.20;9.88;;;;;;;30.45;61.37;100487.97;5050358;28;70559;-35
2022/10/15 05:48:24;;;;;;;17.63;9.13;;;;;;;30.40;60.02;100479.75;5052561;28;65650;-33
2022/10/15 05:51:04;;;;;;;16.63;9.40;;;;;;;29.82;59.50;100387.13;5055478;28;70179;-34
2022/10/15 05:53:36;;;;;;;9.80;8.82;;;;;;;30.28;58.56;100472.38;5052234;28;67195;-34
2022/10/15 05:56:09;;;;;;;8.18;7.57;;;;;;;30.22;57.51;100467.84;5053630;28;70264;-33
2022/10/15 05:58:40;;;;;;;8.05;7.45;;;;;;;30.00;56.98;100439.56;5054961;28;65727;-35
2022/10/15 06:01:12;;;;;;;8.85;8.23;;;;;;;30.18;57.68;100434.16;5049469;28;70694;-35
2022/10/15 06:03:43;;;;;;;8.65;7.88;;;;;;;30.34;57.28;100442.72;5053254;28;65597;-34
2022/10/15 06:06:14;;;;;;;8.45;7.55;;;;;;;30.33;56.24;100441.09;5054907;27;69965;-33
2022/10/15 06:08:45;;;;;;;8.38;7.60;;;;;;;30.44;55.96;100448.44;5055285;28;65412;-34
2022/10/15 06:11:16;;;;;;;8.25;7.65;;;;;;;30.47;55.31;100448.00;5053367;28;70158;-35
2022/10/15 06:13:47;;;;;;;7.70;7.10;;;;;;;30.26;54.74;100423.06;5051484;28;66063;-35
2022/10/15 06:16:17;;;;;;;10.27;7.20;;;;;;;30.20;53.96;100399.59;5051903;28;70287;-36
2022/10/15 06:18:52;;;;;;;8.57;7.40;;;;;;;30.35;53.37;100417.34;5055848;28;65689;-35
2022/10/15 06:21:23;;;;;;;8.95;8.15;;;;;;;30.51;53.49;100438.38;5051271;28;70123;-35
2022/10/15 06:23:53;;;;;;;7.60;7.07;;;;;;;30.52;52.68;100440.00;5056335;28;66158;-34
2022/10/15 06:26:24;;;;;;;6.82;6.43;;;;;;;30.51;52.09;100427.56;5058319;28;70382;-33
2022/10/15 06:28:54;;;;;;;7.82;7.10;;;;;;;30.47;51.55;100427.16;5058131;28;66513;-35
2022/10/15 06:31:25;;;;;;;7.72;7.03;;;;;;;30.49;51.72;100425.06;5059135;28;70222;-35
2022/10/15 06:33:55;;;;;;;8.25;7.43;;;;;;;30.52;51.23;100425.66;5060133;28;66287;-34
2022/10/15 06:36:27;;;;;;;7.75;7.05;;;;;;;30.33;50.69;100381.56;5059313;27;70466;-34
2022/10/15 06:38:57;;;;;;;7.72;7.13;;;;;;;30.48;50.57;100407.19;5058723;28;66108;-33
2022/10/15 06:41:27;;;;;;;10.23;7.13;;;;;;;30.35;50.24;100379.47;5058210;28;69911;-33
2022/10/15 06:43:58;;;;;;;7.28;6.65;;;;;;;30.48;50.03;100411.78;5060115;28;66580;-35
2022/10/15 06:46:28;;;;;;;7.53;7.03;;;;;;;30.50;49.37;100406.94;5059830;28;70294;-34
2022/10/15 06:48:59;;;;;;;7.18;6.68;;;;;;;30.43;49.53;100398.09;5058185;28;66603;-33
2022/10/15 06:51:29;;;;;;;7.20;6.70;;;;;;;30.47;49.03;100391.16;5059883;28;70379;-35
2022/10/15 06:53:59;;;;;;;7.57;6.95;;;;;;;30.48;49.04;100390.13;5060212;28;66584;-38
2022/10/15 06:56:30;;;;;;;7.55;6.97;;;;;;;30.47;48.59;100380.31;5058185;28;71215;-33
2022/10/15 06:59:00;;;;;;;7.68;7.18;;;;;;;30.46;47.95;100381.41;5059569;28;66028;-34
2022/10/15 07:01:31;;;;;;;7.57;6.97;;;;;;;30.47;47.83;100383.03;5059757;28;70339;-34
2022/10/15 07:04:04;;;;;;;7.00;6.38;;;;;;;30.44;48.04;100369.97;5056716;28;66193;-33
2022/10/15 07:06:35;;;;;;;6.65;6.15;;;;;;;30.34;47.66;100356.16;5057178;28;70808;-34
2022/10/15 07:09:05;;;;;;;7.25;6.75;;;;;;;30.40;47.73;100368.78;5054477;28;65274;-35
2022/10/15 07:11:36;;;;;;;7.37;6.83;;;;;;;30.43;47.27;100371.84;5053707;28;70228;-34
2022/10/15 07:14:07;;;;;;;8.73;6.40;;;;;;;30.43;47.33;100369.16;5052762;28;66201;-35
2022/10/15 07:16:40;;;;;;;7.25;6.55;;;;;;;30.46;46.93;100357.03;5059761;28;69518;-34
2022/10/15 07:19:11;;;;;;;6.57;6.07;;;;;;;30.47;47.11;100361.38;5058237;28;66399;-34
2022/10/15 07:21:43;;;;;;;7.18;6.35;;;;;;;30.49;46.87;100362.00;5059401;28;69560;-34
2022/10/15 07:24:14;;;;;;;10.67;6.60;;;;;;;30.27;46.93;100334.59;5053453;28;65763;-33
2022/10/15 07:26:47;;;;;;;7.13;6.28;;;;;;;30.46;45.78;100370.56;5051777;28;70574;-34
2022/10/15 07:29:18;;;;;;;6.93;6.22;;;;;;;30.48;46.23;100363.06;5054216;28;66456;-33
2022/10/15 07:31:48;;;;;;;6.45;6.05;;;;;;;30.49;46.15;100353.88;5054880;28;70332;-32
2022/10/15 07:34:21;;;;;;;11.27;6.70;;;;;;;30.48;45.93;100347.63;5056745;28;65266;-33
2022/10/15 07:36:51;;;;;;;7.05;6.35;;;;;;;30.54;47.20;100361.31;5056623;28;69011;-32
2022/10/15 07:39:23;;;;;;;6.68;6.18;;;;;;;30.69;47.49;100353.56;5055636;28;65530;-33
2022/10/15 07:41:53;;;;;;;6.68;5.80;;;;;;;30.79;48.20;100358.44;5059648;27;68673;-35
2022/10/15 07:44:24;;;;;;;7.15;6.45;;;;;;;30.89;49.36;100364.13;5052059;28;65529;-34
2022/10/15 07:46:54;;;;;;;7.07;6.57;;;;;;;30.94;50.54;100345.28;5056287;28;69216;-33
2022/10/15 07:49:25;;;;;;;7.70;6.93;;;;;;;31.10;51.33;100371.69;5056819;28;65823;-33
2022/10/15 07:51:56;;;;;;;8.50;7.78;;;;;;;30.94;52.33;100324.44;5050629;28;70297;-33
2022/10/15 07:54:26;;;;;;;8.45;7.60;;;;;;;31.13;55.03;100357.69;5053146;28;65681;-34
2022/10/15 07:56:57;;;;;;;11.80;8.50;;;;;;;31.01;56.68;100361.41;5059276;28;70128;-34
2022/10/15 07:59:27;;;;;;;9.98;8.98;;;;;;;30.96;57.69;100364.84;5061297;27;65599;-33
2022/10/15 08:01:58;;;;;;;7.90;7.20;;;;;;;30.89;58.22;100369.53;5056169;28;70708;-32
2022/10/15 08:04:29;;;;;;;8.55;7.85;;;;;;;30.86;58.86;100370.00;5061599;28;66403;-33
2022/10/15 08:06:59;;;;;;;8.60;7.75;;;;;;;30.87;59.22;100377.06;5058694;28;69181;-34
2022/10/15 08:09:30;;;;;;;12.27;8.63;;;;;;;30.81;59.72;100372.56;5059068;28;67138;-34
2022/10/15 08:12:01;;;;;;;10.73;8.30;;;;;;;30.87;59.60;100374.34;5054874;28;70403;-35
2022/10/15 08:14:34;;;;;;;10.70;8.70;;;;;;;30.39;60.19;100307.59;5061459;28;65454;-34
2022/10/15 08:17:05;;;;;;;15.52;8.27;;;;;;;30.88;60.83;100384.97;5059217;28;70332;-34
2022/10/15 08:19:37;;;;;;;9.27;8.45;;;;;;;30.89;60.85;100385.78;5062680;28;67044;-34
2022/10/15 08:22:08;;;;;;;11.80;8.87;;;;;;;30.91;60.81;100389.09;5060444;28;69457;-34
2022/10/15 08:24:38;;;;;;;18.02;9.55;;;;;;;30.97;61.43;100390.88;5063262;28;66005;-35
2022/10/15 08:27:09;;;;;;;20.38;9.32;;;;;;;30.97;61.48;100396.28;5063419;28;69381;-34
2022/10/15 08:29:41;;;;;;;39.47;16.80;;;;;;;30.98;59.27;100394.38;5064743;28;65299;-34
2022/10/15 08:32:13;;;;;;;23.73;12.15;;;;;;;30.98;58.89;100389.81;5049278;28;70375;-34
2022/10/15 08:34:43;;;;;;;18.73;12.47;;;;;;;30.94;59.15;100384.03;5057129;28;65459;-33
2022/10/15 08:37:13;;;;;;;17.75;11.60;;;;;;;31.01;58.87;100383.94;5055710;28;71622;-34
2022/10/15 08:39:44;;;;;;;21.38;10.88;;;;;;;30.99;58.68;100391.47;5056836;28;66377;-34
2022/10/15 08:42:28;;;;;;;22.30;11.88;;;;;;;30.14;59.72;100254.41;5055958;28;70069;-34
2022/10/15 08:45:06;;;;;;;23.45;12.27;;;;;;;31.04;59.89;100399.72;5049989;28;66312;-34
2022/10/15 08:47:46;;;;;;;22.42;11.75;;;;;;;31.03;60.58;100391.81;5055842;28;69588;-32
2022/10/15 08:50:51;;;;;;;16.35;9.85;;;;;;;30.98;58.23;100389.81;5049263;28;66436;-33
2022/10/15 08:53:24;;;;;;;12.13;9.23;;;;;;;30.62;58.00;100337.44;5051400;27;70328;-33
2022/10/15 08:56:01;;;;;;;18.02;10.35;;;;;;;30.64;58.55;100331.78;5058349;28;66760;-33
2022/10/15 08:58:46;;;;;;;17.83;11.32;;;;;;;31.02;60.23;100404.53;5049932;28;70055;-35
2022/10/15 09:01:31;;;;;;;17.33;12.05;;;;;;;30.99;61.25;100396.88;5055913;28;66735;-33
2022/10/15 09:04:22;;;;;;;20.33;11.48;;;;;;;31.06;61.62;100397.59;5054109;28;69864;-34
2022/10/15 09:07:19;;;;;;;12.07;10.77;;;;;;;31.10;61.86;100409.63;5058507;27;66108;-33
2022/10/15 09:10:31;;;;;;;17.92;11.65;;;;;;;30.97;62.66;100399.00;5048916;28;69945;-33
2022/10/15 09:13:24;;;;;;;18.17;11.32;;;;;;;31.07;62.65;100410.09;5063598;28;66479;-34
2022/10/15 09:16:04;;;;;;;15.93;11.30;;;;;;;31.14;62.75;100409.97;5050103;28;69549;-34
2022/10/15 09:18:37;;;;;;;19.95;11.63;;;;;;;31.21;62.86;100426.13;5058840;28;65762;-33
2022/10/15 09:21:10;;;;;;;19.25;10.35;;;;;;;31.20;63.12;100435.31;5049989;28;69515;-33
2022/10/15 09:23:43;;;;;;;21.50;11.10;;;;;;;31.25;62.90;100432.72;5058593;28;65483;-33
2022/10/15 09:26:27;;;;;;;21.92;11.40;;;;;;;31.24;63.31;100428.38;5055198;28;70175;-33
2022/10/15 09:29:16;;;;;;;21.15;11.63;;;;;;;31.35;62.68;100422.16;5063630;28;43778;-34
2022/10/15 09:31:57;;;;;;;21.85;12.00;;;;;;;31.46;62.15;100429.47;5059231;28;70179;-35
2022/10/15 09:34:47;;;;;;;19.58;11.15;;;;;;;31.59;61.56;100434.69;5047095;28;65379;-34
2022/10/15 09:37:54;;;;;;;17.30;11.45;;;;;;;31.55;61.50;100432.66;5055405;28;69208;-36
2022/10/15 09:40:32;;;;;;;21.95;11.32;;;;;;;31.72;60.39;100428.19;5059492;28;66589;-34
2022/10/15 09:43:05;;;;;;;15.60;10.43;;;;;;;31.72;60.45;100419.22;5058456;28;69844;-34
2022/10/15 09:45:35;;;;;;;27.17;11.15;;;;;;;31.82;59.84;100427.59;5057399;28;66292;-34
2022/10/15 09:48:16;;;;;;;14.10;10.50;;;;;;;31.43;60.05;100375.75;5057366;28;70323;-35
2022/10/15 09:51:03;;;;;;;15.98;10.63;;;;;;;31.84;60.03;100452.56;5046476;28;65760;-33
2022/10/15 09:53:44;;;;;;;12.35;10.80;;;;;;;31.90;59.95;100443.50;5056781;28;69921;-33
2022/10/15 09:56:19;;;;;;;19.87;9.83;;;;;;;31.03;59.86;100314.09;5051575;28;66012;-33
2022/10/15 09:58:55;;;;;;;15.45;10.27;;;;;;;31.43;59.98;100373.03;5050879;28;70208;-35
2022/10/15 10:01:29;;;;;;;23.25;10.50;;;;;;;31.94;60.12;100457.44;5058709;28;66829;-33
2022/10/15 10:04:20;;;;;;;14.10;9.82;;;;;;;31.86;60.31;100452.34;5051468;28;70239;-34
2022/10/15 10:07:01;;;;;;;14.38;11.18;;;;;;;31.47;59.41;100379.63;5055542;28;65556;-34
2022/10/15 10:09:35;;;;;;;19.17;10.48;;;;;;;31.47;59.48;100371.50;5057018;28;69971;-34
2022/10/15 10:12:17;;;;;;;19.13;13.25;;;;;;;31.76;59.58;100420.38;5057835;28;64847;-34
2022/10/15 10:15:21;;;;;;;17.73;11.50;;;;;;;31.30;59.85;100378.66;5058606;28;70147;-34
2022/10/15 10:18:00;;;;;;;11.90;10.73;;;;;;;31.81;59.63;100448.44;5031943;28;66825;-33
2022/10/15 10:20:33;;;;;;;17.98;12.65;;;;;;;31.55;59.28;100389.28;5051604;28;71015;-33
2022/10/15 10:23:22;;;;;;;20.60;13.27;;;;;;;31.58;59.33;100415.94;5056849;28;66131;-34
2022/10/15 10:25:57;;;;;;;13.75;12.30;;;;;;;31.44;59.11;100376.56;5050645;28;70017;-34
2022/10/15 10:29:01;;;;;;;16.70;13.10;;;;;;;31.85;58.97;100459.66;5046308;28;66387;-33
2022/10/15 10:31:44;;;;;;;15.43;12.73;;;;;;;31.90;59.06;100461.63;5048015;28;69769;-34
2022/10/15 10:34:31;;;;;;;14.40;12.57;;;;;;;31.79;58.66;100455.19;5051840;28;66462;-33
2022/10/15 10:37:06;;;;;;;15.77;13.48;;;;;;;31.89;58.87;100471.66;5043624;28;71229;-33
2022/10/15 10:39:38;;;;;;;25.33;14.65;;;;;;;31.83;58.76;100473.44;5051036;28;66258;-33
2022/10/15 10:42:18;;;;;;;24.20;15.32;;;;;;;31.83;58.85;100488.91;5049422;28;69349;-36
2022/10/15 10:44:49;;;;;;;16.35;14.75;;;;;;;31.85;58.92;100486.78;5052176;28;65791;-34
2022/10/15 10:47:23;;;;;;;28.88;21.15;;;;;;;31.58;60.99;100492.66;5052694;28;69746;-33
2022/10/15 10:50:00;;;;;;;40.95;25.20;;;;;;;31.39;61.76;100488.38;5052252;28;66304;-34
2022/10/15 10:52:37;;;;;;;49.37;26.43;;;;;;;31.02;62.79;100449.75;5050455;28;70376;-34
2022/10/15 10:55:19;;;;;;;35.92;24.98;;;;;;;30.80;63.33;100446.75;5051072;28;66144;-33
2022/10/15 10:58:00;;;;;;;45.13;29.70;;;;;;;31.13;63.76;100517.53;5052114;28;69438;-34
2022/10/15 11:00:44;;;;;;;45.50;28.88;;;;;;;31.10;63.99;100512.56;5048752;28;65439;-33
2022/10/15 11:03:42;;;;;;;51.30;31.35;;;;;;;31.03;63.61;100522.66;5053131;28;70066;-32
2022/10/15 11:06:18;;;;;;;51.60;33.58;;;;;;;30.98;64.23;100514.41;5054650;28;65731;-35
2022/10/15 11:09:07;;;;;;;51.70;33.70;;;;;;;30.97;64.29;100523.59;5049968;28;70040;-32
2022/10/15 11:11:47;;;;;;;52.95;36.22;;;;;;;30.91;64.50;100529.91;5057104;28;65623;-34
2022/10/15 11:14:35;;;;;;;51.50;34.95;;;;;;;30.86;64.57;100533.31;5055039;28;69374;-33
2022/10/15 11:17:55;;;;;;;55.42;31.15;;;;;;;30.28;65.80;100469.69;5052412;28;65909;-36
2022/10/15 11:20:38;;;;;;;47.80;32.10;;;;;;;30.86;65.50;100543.31;5052434;28;69501;-39
2022/10/15 11:24:00;;;;;;;49.30;33.42;;;;;;;30.85;65.61;100549.81;5055476;28;66380;-34
2022/10/15 11:26:42;;;;;;;45.80;29.95;;;;;;;30.86;65.86;100554.97;5056028;28;69647;-34
2022/10/15 11:30:19;;;;;;;49.70;29.92;;;;;;;30.35;65.77;100485.00;5055030;28;64830;-34
2022/10/15 11:33:07;;;;;;;53.72;31.23;;;;;;;30.79;66.28;100558.81;5072418;28;69854;-34
2022/10/15 11:35:50;;;;;;;51.20;34.08;;;;;;;30.88;66.37;100560.19;5068790;28;66875;-34
2022/10/15 11:38:59;;;;;;;47.55;32.83;;;;;;;30.84;66.36;100561.66;5069385;28;70098;-34
2022/10/15 11:41:43;;;;;;;51.35;34.03;;;;;;;30.82;65.94;100553.78;4980779;28;66192;-34
2022/10/15 11:44:34;;;;;;;48.47;33.60;;;;;;;30.77;66.19;100560.91;5063294;28;69457;-39
2022/10/15 11:47:32;;;;;;;49.33;32.47;;;;;;;30.73;66.03;100555.94;5052153;28;66364;-33
2022/10/15 11:50:27;;;;;;;51.40;32.20;;;;;;;30.72;66.04;100562.41;5050325;28;70183;-34
2022/10/15 11:53:16;;;;;;;50.63;34.22;;;;;;;30.71;66.12;100563.47;5052136;28;66155;-34
2022/10/15 11:55:54;;;;;;;62.70;37.67;;;;;;;30.84;65.84;100572.50;5053089;28;70319;-34
2022/10/15 11:58:40;;;;;;;55.47;33.55;;;;;;;30.77;66.08;100569.03;5050529;28;66428;-35
2022/10/15 12:01:16;;;;;;;50.35;32.70;;;;;;;30.77;66.57;100588.81;5051561;28;70495;-34